sensor_id;sensor_type;location;lat;lon;timestamp;pressure;altitude;pressure_sealevel;temperature;humidity
3142;BME280;1581;51.568;6.998;2024-02-16T00:01:22;100364.78;;;15.07;100.00
3142;BME280;1581;51.568;6.998;2024-02-16T00:03:49;100365.50;;;15.14;100.00
3142;BME280;1581;51.568;6.998;2024-02-16T00:06:16;100353.38;;;15.11;100.00
3142;BME280;1581;51.568;6.998;2024-02-16T00:08:46;100364.34;;;15.10;100.00
3142;BME280;1581;51.568;6.998;2024-02-16T00:11:13;100362.25;;;15.12;100.00
3142;BME280;1581;51.568;6.998;2024-02-16T00:13:40;100364.94;;;15.12;100.00
3142;BME280;1581;51.568;6.998;2024-02-16T00:16:07;100361.78;;;15.15;100.00
3142;BME280;1581;51.568;6.998;2024-02-16T00:18:35;100374.41;;;15.14;100.00
3142;BME280;1581;51.568;6.998;2024-02-16T00:21:03;100363.16;;;15.06;100.00
3142;BME280;1581;51.568;6.998;2024-02-16T00:23:31;100376.41;;;15.19;100.00
3142;BME280;1581;51.568;6.998;2024-02-16T00:26:02;100376.16;;;15.20;100.00
3142;BME280;1581;51.568;6.998;2024-02-16T00:28:33;100370.41;;;15.05;100.00
3142;BME280;1581;51.568;6.998;2024-02-16T00:31:00;100373.44;;;15.09;100.00
3142;BME280;1581;51.568;6.998;2024-02-16T00:33:28;100371.72;;;15.14;100.00
3142;BME280;1581;51.568;6.998;2024-02-16T00:35:55;100369.03;;;15.14;100.00
3142;BME280;1581;51.568;6.998;2024-02-16T00:38:22;100377.09;;;15.14;100.00
3142;BME280;1581;51.568;6.998;2024-02-16T00:40:50;100378.84;;;15.20;100.00
3142;BME280;1581;51.568;6.998;2024-02-16T00:43:21;100384.59;;;15.24;100.00
3142;BME280;1581;51.568;6.998;2024-02-16T00:45:49;100375.81;;;15.17;100.00
3142;BME280;1581;51.568;6.998;2024-02-16T00:48:16;100379.44;;;15.22;100.00
3142;BME280;1581;51.568;6.998;2024-02-16T00:50:43;100367.47;;;15.25;100.00
3142;BME280;1581;51.568;6.998;2024-02-16T00:53:10;100371.34;;;15.29;100.00
3142;BME280;1581;51.568;6.998;2024-02-16T00:55:37;100372.03;;;15.24;100.00
3142;BME280;1581;51.568;6.998;2024-02-16T00:58:07;100376.34;;;15.25;100.00
3142;BME280;1581;51.568;6.998;2024-02-16T01:00:36;100368.66;;;15.29;100.00
3142;BME280;1581;51.568;6.998;2024-02-16T01:03:04;100373.03;;;15.23;100.00
3142;BME280;1581;51.568;6.998;2024-02-16T01:05:31;100370.81;;;15.20;100.00
3142;BME280;1581;51.568;6.998;2024-02-16T01:07:58;100366.28;;;15.21;100.00
3142;BME280;1581;51.568;6.998;2024-02-16T01:10:25;100368.72;;;15.22;100.00
3142;BME280;1581;51.568;6.998;2024-02-16T01:12:52;100358.59;;;15.24;100.00
3142;BME280;1581;51.568;6.998;2024-02-16T01:15:21;100358.53;;;15.31;100.00
3142;BME280;1581;51.568;6.998;2024-02-16T01:17:50;100355.28;;;15.22;100.00
3142;BME280;1581;51.568;6.998;2024-02-16T01:20:18;100349.41;;;15.14;100.00
3142;BME280;1581;51.568;6.998;2024-02-16T01:22:46;100357.56;;;15.25;100.00
3142;BME280;1581;51.568;6.998;2024-02-16T01:25:13;100353.88;;;15.20;100.00
3142;BME280;1581;51.568;6.998;2024-02-16T01:27:41;100346.34;;;15.28;100.00
3142;BME280;1581;51.568;6.998;2024-02-16T01:30:08;100352.56;;;15.29;100.00
3142;BME280;1581;51.568;6.998;2024-02-16T01:32:36;100353.28;;;15.18;100.00
3142;BME280;1581;51.568;6.998;2024-02-16T01:35:06;100339.50;;;15.14;100.00
3142;BME280;1581;51.568;6.998;2024-02-16T01:37:33;100345.94;;;15.13;100.00
3142;BME280;1581;51.568;6.998;2024-02-16T01:40:02;100345.09;;;15.13;100.00
3142;BME280;1581;51.568;6.998;2024-02-16T01:42:30;100341.59;;;15.12;100.00
3142;BME280;1581;51.568;6.998;2024-02-16T01:44:57;100342.41;;;15.13;100.00
3142;BME280;1581;51.568;6.998;2024-02-16T01:47:25;100326.69;;;15.16;100.00
3142;BME280;1581;51.568;6.998;2024-02-16T01:49:52;100333.09;;;15.15;100.00
3142;BME280;1581;51.568;6.998;2024-02-16T01:52:21;100330.63;;;15.14;100.00
3142;BME280;1581;51.568;6.998;2024-02-16T01:54:48;100323.31;;;15.21;100.00
3142;BME280;1581;51.568;6.998;2024-02-16T01:57:16;100324.22;;;15.15;100.00
3142;BME280;1581;51.568;6.998;2024-02-16T01:59:43;100326.31;;;15.13;100.00
3142;BME280;1581;51.568;6.998;2024-02-16T02:02:11;100322.94;;;15.17;100.00
3142;BME280;1581;51.568;6.998;2024-02-16T02:04:38;100316.16;;;15.15;100.00
3142;BME280;1581;51.568;6.998;2024-02-16T02:07:12;100309.03;;;15.09;100.00
3142;BME280;1581;51.568;6.998;2024-02-16T02:09:41;100316.50;;;15.07;100.00
3142;BME280;1581;51.568;6.998;2024-02-16T02:12:08;100321.25;;;15.05;100.00
3142;BME280;1581;51.568;6.998;2024-02-16T02:14:35;100325.91;;;14.98;100.00
3142;BME280;1581;51.568;6.998;2024-02-16T02:17:03;100323.66;;;14.95;100.00
3142;BME280;1581;51.568;6.998;2024-02-16T02:19:30;100319.56;;;14.92;100.00
3142;BME280;1581;51.568;6.998;2024-02-16T02:21:58;100316.13;;;15.03;100.00
3142;BME280;1581;51.568;6.998;2024-02-16T02:24:28;100310.88;;;15.08;100.00
3142;BME280;1581;51.568;6.998;2024-02-16T02:26:55;100310.00;;;15.14;100.00
3142;BME280;1581;51.568;6.998;2024-02-16T02:29:23;100311.63;;;15.15;100.00
3142;BME280;1581;51.568;6.998;2024-02-16T02:31:50;100309.72;;;15.04;100.00
3142;BME280;1581;51.568;6.998;2024-02-16T02:34:17;100310.31;;;15.06;100.00
3142;BME280;1581;51.568;6.998;2024-02-16T02:36:44;100310.88;;;15.08;100.00
3142;BME280;1581;51.568;6.998;2024-02-16T02:39:11;100308.34;;;15.13;100.00
3142;BME280;1581;51.568;6.998;2024-02-16T02:41:40;100311.28;;;15.12;100.00
3142;BME280;1581;51.568;6.998;2024-02-16T02:44:07;100312.00;;;15.19;100.00
3142;BME280;1581;51.568;6.998;2024-02-16T02:46:35;100314.44;;;15.20;100.00
3142;BME280;1581;51.568;6.998;2024-02-16T02:49:02;100304.13;;;15.17;100.00
3142;BME280;1581;51.568;6.998;2024-02-16T02:51:30;100314.22;;;15.22;100.00
3142;BME280;1581;51.568;6.998;2024-02-16T02:53:57;100305.56;;;15.20;100.00
3142;BME280;1581;51.568;6.998;2024-02-16T02:56:29;100297.72;;;15.18;100.00
3142;BME280;1581;51.568;6.998;2024-02-16T02:58:57;100296.00;;;15.24;100.00
3142;BME280;1581;51.568;6.998;2024-02-16T03:01:25;100289.97;;;15.28;100.00
3142;BME280;1581;51.568;6.998;2024-02-16T03:03:52;100278.88;;;15.25;100.00
3142;BME280;1581;51.568;6.998;2024-02-16T03:06:20;100277.38;;;15.29;100.00
3142;BME280;1581;51.568;6.998;2024-02-16T03:08:49;100277.03;;;15.25;100.00
3142;BME280;1581;51.568;6.998;2024-02-16T03:11:17;100270.38;;;15.28;100.00
3142;BME280;1581;51.568;6.998;2024-02-16T03:13:44;100272.88;;;15.23;100.00
3142;BME280;1581;51.568;6.998;2024-02-16T03:16:13;100269.63;;;15.21;100.00
3142;BME280;1581;51.568;6.998;2024-02-16T03:18:44;100266.34;;;15.19;100.00
3142;BME280;1581;51.568;6.998;2024-02-16T03:21:13;100266.22;;;15.14;100.00
3142;BME280;1581;51.568;6.998;2024-02-16T03:23:42;100264.72;;;15.18;100.00
3142;BME280;1581;51.568;6.998;2024-02-16T03:26:15;100268.22;;;15.18;100.00
3142;BME280;1581;51.568;6.998;2024-02-16T03:28:44;100283.34;;;15.13;100.00
3142;BME280;1581;51.568;6.998;2024-02-16T03:31:19;100270.06;;;15.06;100.00
3142;BME280;1581;51.568;6.998;2024-02-16T03:33:47;100273.28;;;14.97;100.00
3142;BME280;1581;51.568;6.998;2024-02-16T03:36:15;100275.25;;;14.90;100.00
3142;BME280;1581;51.568;6.998;2024-02-16T03:38:43;100265.28;;;14.79;100.00
3142;BME280;1581;51.568;6.998;2024-02-16T03:41:13;100266.94;;;14.80;100.00
3142;BME280;1581;51.568;6.998;2024-02-16T03:43:42;100270.66;;;14.79;100.00
3142;BME280;1581;51.568;6.998;2024-02-16T03:46:10;100270.66;;;14.79;100.00
3142;BME280;1581;51.568;6.998;2024-02-16T03:48:39;100275.88;;;14.74;100.00
3142;BME280;1581;51.568;6.998;2024-02-16T03:51:06;100269.94;;;14.72;100.00
3142;BME280;1581;51.568;6.998;2024-02-16T03:53:34;100275.66;;;14.75;100.00
3142;BME280;1581;51.568;6.998;2024-02-16T03:56:02;100272.63;;;14.72;100.00
3142;BME280;1581;51.568;6.998;2024-02-16T03:58:31;100280.19;;;14.75;100.00
3142;BME280;1581;51.568;6.998;2024-02-16T04:00:59;100268.97;;;14.66;100.00
3142;BME280;1581;51.568;6.998;2024-02-16T04:03:27;100268.38;;;14.64;100.00
3142;BME280;1581;51.568;6.998;2024-02-16T04:05:55;100267.41;;;14.59;100.00
3142;BME280;1581;51.568;6.998;2024-02-16T04:08:25;100266.94;;;14.80;100.00
3142;BME280;1581;51.568;6.998;2024-02-16T04:10:52;100264.97;;;14.87;100.00
3142;BME280;1581;51.568;6.998;2024-02-16T04:13:20;100262.28;;;14.87;100.00
3142;BME280;1581;51.568;6.998;2024-02-16T04:15:47;100263.09;;;14.87;100.00
3142;BME280;1581;51.568;6.998;2024-02-16T04:18:14;100264.72;;;14.88;100.00
3142;BME280;1581;51.568;6.998;2024-02-16T04:20:41;100261.56;;;14.80;100.00
3142;BME280;1581;51.568;6.998;2024-02-16T04:23:10;100265.41;;;14.84;100.00
3142;BME280;1581;51.568;6.998;2024-02-16T04:25:38;100271.00;;;14.82;100.00
3142;BME280;1581;51.568;6.998;2024-02-16T04:28:05;100273.19;;;14.74;100.00
3142;BME280;1581;51.568;6.998;2024-02-16T04:30:33;100263.13;;;14.69;100.00
3142;BME280;1581;51.568;6.998;2024-02-16T04:33:01;100259.28;;;14.65;100.00
3142;BME280;1581;51.568;6.998;2024-02-16T04:35:30;100264.13;;;14.57;100.00
3142;BME280;1581;51.568;6.998;2024-02-16T04:37:57;100262.34;;;14.51;100.00
3142;BME280;1581;51.568;6.998;2024-02-16T04:40:26;100267.13;;;14.49;100.00
3142;BME280;1581;51.568;6.998;2024-02-16T04:42:53;100270.69;;;14.43;100.00
3142;BME280;1581;51.568;6.998;2024-02-16T04:45:21;100278.97;;;14.42;100.00
3142;BME280;1581;51.568;6.998;2024-02-16T04:47:48;100276.88;;;14.44;100.00
3142;BME280;1581;51.568;6.998;2024-02-16T04:50:15;100271.13;;;14.58;100.00
3142;BME280;1581;51.568;6.998;2024-02-16T04:52:42;100270.16;;;14.53;100.00
3142;BME280;1581;51.568;6.998;2024-02-16T04:55:09;100270.28;;;14.58;100.00
3142;BME280;1581;51.568;6.998;2024-02-16T04:57:38;100280.56;;;14.61;100.00
3142;BME280;1581;51.568;6.998;2024-02-16T05:00:07;100277.97;;;14.54;100.00
3142;BME280;1581;51.568;6.998;2024-02-16T05:02:36;100279.69;;;14.49;100.00
3142;BME280;1581;51.568;6.998;2024-02-16T05:05:03;100270.13;;;14.41;100.00
3142;BME280;1581;51.568;6.998;2024-02-16T05:07:31;100271.22;;;14.34;100.00
3142;BME280;1581;51.568;6.998;2024-02-16T05:09:58;100270.38;;;14.33;100.00
3142;BME280;1581;51.568;6.998;2024-02-16T05:12:27;100266.38;;;14.24;100.00
3142;BME280;1581;51.568;6.998;2024-02-16T05:14:56;100267.88;;;14.20;100.00
3142;BME280;1581;51.568;6.998;2024-02-16T05:17:23;100271.81;;;14.18;100.00
3142;BME280;1581;51.568;6.998;2024-02-16T05:19:51;100270.56;;;14.20;100.00
3142;BME280;1581;51.568;6.998;2024-02-16T05:22:19;100264.84;;;14.17;100.00
3142;BME280;1581;51.568;6.998;2024-02-16T05:24:47;100267.94;;;14.14;100.00
3142;BME280;1581;51.568;6.998;2024-02-16T05:27:14;100265.19;;;14.20;100.00
3142;BME280;1581;51.568;6.998;2024-02-16T05:29:45;100263.13;;;14.22;100.00
3142;BME280;1581;51.568;6.998;2024-02-16T05:32:13;100270.84;;;14.30;100.00
3142;BME280;1581;51.568;6.998;2024-02-16T05:34:40;100270.56;;;14.20;100.00
3142;BME280;1581;51.568;6.998;2024-02-16T05:37:08;100275.53;;;14.35;100.00
3142;BME280;1581;51.568;6.998;2024-02-16T05:39:39;100279.78;;;14.42;100.00
3142;BME280;1581;51.568;6.998;2024-02-16T05:42:20;100269.81;;;14.49;100.00
3142;BME280;1581;51.568;6.998;2024-02-16T05:44:48;100284.19;;;14.55;100.00
3142;BME280;1581;51.568;6.998;2024-02-16T05:47:16;100280.91;;;14.53;100.00
3142;BME280;1581;51.568;6.998;2024-02-16T05:49:46;100280.91;;;14.53;100.00
3142;BME280;1581;51.568;6.998;2024-02-16T05:52:13;100282.66;;;14.59;100.00
3142;BME280;1581;51.568;6.998;2024-02-16T05:54:47;100268.88;;;14.55;100.00
3142;BME280;1581;51.568;6.998;2024-02-16T05:57:16;100273.88;;;14.52;100.00
3142;BME280;1581;51.568;6.998;2024-02-16T05:59:45;100270.41;;;14.51;100.00
3142;BME280;1581;51.568;6.998;2024-02-16T06:02:38;100271.56;;;14.55;100.00
3142;BME280;1581;51.568;6.998;2024-02-16T06:05:11;100266.44;;;14.54;100.00
3142;BME280;1581;51.568;6.998;2024-02-16T06:07:39;100275.09;;;14.56;100.00
3142;BME280;1581;51.568;6.998;2024-02-16T06:10:08;100271.25;;;14.63;100.00
3142;BME280;1581;51.568;6.998;2024-02-16T06:12:37;100265.88;;;14.63;100.00
3142;BME280;1581;51.568;6.998;2024-02-16T06:15:05;100276.78;;;14.68;100.00
3142;BME280;1581;51.568;6.998;2024-02-16T06:17:34;100279.97;;;14.59;100.00
3142;BME280;1581;51.568;6.998;2024-02-16T06:20:03;100284.53;;;14.58;100.00
3142;BME280;1581;51.568;6.998;2024-02-16T06:22:31;100291.91;;;14.63;100.00
3142;BME280;1581;51.568;6.998;2024-02-16T06:24:59;100287.94;;;14.65;100.00
3142;BME280;1581;51.568;6.998;2024-02-16T06:27:26;100288.41;;;14.62;100.00
3142;BME280;1581;51.568;6.998;2024-02-16T06:29:54;100287.94;;;14.65;100.00
3142;BME280;1581;51.568;6.998;2024-02-16T06:32:21;100290.91;;;14.75;100.00
3142;BME280;1581;51.568;6.998;2024-02-16T06:34:50;100286.38;;;14.75;100.00
3142;BME280;1581;51.568;6.998;2024-02-16T06:37:17;100285.56;;;14.75;100.00
3142;BME280;1581;51.568;6.998;2024-02-16T06:39:44;100288.16;;;14.81;100.00
3142;BME280;1581;51.568;6.998;2024-02-16T06:42:12;100291.94;;;14.74;100.00
3142;BME280;1581;51.568;6.998;2024-02-16T06:44:39;100287.44;;;14.74;100.00
3142;BME280;1581;51.568;6.998;2024-02-16T06:47:06;100281.38;;;14.79;100.00
3142;BME280;1581;51.568;6.998;2024-02-16T06:49:34;100288.84;;;14.77;100.00
3142;BME280;1581;51.568;6.998;2024-02-16T06:52:04;100288.03;;;14.59;100.00
3142;BME280;1581;51.568;6.998;2024-02-16T06:54:32;100289.44;;;14.79;100.00
3142;BME280;1581;51.568;6.998;2024-02-16T06:57:01;100296.91;;;14.88;100.00
3142;BME280;1581;51.568;6.998;2024-02-16T06:59:28;100302.69;;;14.92;100.00
3142;BME280;1581;51.568;6.998;2024-02-16T07:01:56;100320.78;;;14.96;100.00
3142;BME280;1581;51.568;6.998;2024-02-16T07:04:23;100318.91;;;14.97;100.00
3142;BME280;1581;51.568;6.998;2024-02-16T07:06:50;100318.44;;;15.00;100.00
3142;BME280;1581;51.568;6.998;2024-02-16T07:09:19;100319.25;;;15.00;100.00
3142;BME280;1581;51.568;6.998;2024-02-16T07:11:48;100332.81;;;15.05;100.00
3142;BME280;1581;51.568;6.998;2024-02-16T07:14:16;100334.19;;;14.96;100.00
3142;BME280;1581;51.568;6.998;2024-02-16T07:16:43;100345.72;;;14.97;100.00
3142;BME280;1581;51.568;6.998;2024-02-16T07:19:10;100343.41;;;15.00;100.00
3142;BME280;1581;51.568;6.998;2024-02-16T07:21:38;100349.41;;;15.14;100.00
3142;BME280;1581;51.568;6.998;2024-02-16T07:24:06;100357.16;;;15.22;100.00
3142;BME280;1581;51.568;6.998;2024-02-16T07:26:36;100356.56;;;15.20;100.00
3142;BME280;1581;51.568;6.998;2024-02-16T07:29:04;100364.56;;;15.26;100.00
3142;BME280;1581;51.568;6.998;2024-02-16T07:31:33;100361.88;;;15.26;100.00
3142;BME280;1581;51.568;6.998;2024-02-16T07:34:01;100374.09;;;15.22;100.00
3142;BME280;1581;51.568;6.998;2024-02-16T07:36:28;100376.75;;;15.40;100.00
3142;BME280;1581;51.568;6.998;2024-02-16T07:38:56;100374.22;;;15.45;100.00
3142;BME280;1581;51.568;6.998;2024-02-16T07:41:23;100377.50;;;15.47;100.00
3142;BME280;1581;51.568;6.998;2024-02-16T07:43:52;100378.66;;;15.51;100.00
3142;BME280;1581;51.568;6.998;2024-02-16T07:46:19;100384.38;;;15.54;100.00
3142;BME280;1581;51.568;6.998;2024-02-16T07:48:46;100384.53;;;15.59;100.00
3142;BME280;1581;51.568;6.998;2024-02-16T07:51:13;100380.91;;;15.65;100.00
3142;BME280;1581;51.568;6.998;2024-02-16T07:53:41;100378.13;;;15.72;100.00
3142;BME280;1581;51.568;6.998;2024-02-16T07:56:10;100389.38;;;15.80;100.00
3142;BME280;1581;51.568;6.998;2024-02-16T07:58:37;100388.88;;;15.83;100.00
3142;BME280;1581;51.568;6.998;2024-02-16T08:01:07;100391.56;;;15.83;100.00
3142;BME280;1581;51.568;6.998;2024-02-16T08:03:34;100388.69;;;15.85;100.00
3142;BME280;1581;51.568;6.998;2024-02-16T08:06:01;100399.28;;;15.68;100.00
3142;BME280;1581;51.568;6.998;2024-02-16T08:08:41;100396.94;;;15.83;100.00
3142;BME280;1581;51.568;6.998;2024-02-16T08:11:08;100407.75;;;15.95;100.00
3142;BME280;1581;51.568;6.998;2024-02-16T08:13:36;100408.34;;;15.97;100.00
3142;BME280;1581;51.568;6.998;2024-02-16T08:16:06;100405.25;;;15.93;100.00
3142;BME280;1581;51.568;6.998;2024-02-16T08:18:34;100415.13;;;15.99;100.00
3142;BME280;1581;51.568;6.998;2024-02-16T08:21:02;100419.31;;;15.95;100.00
3142;BME280;1581;51.568;6.998;2024-02-16T08:23:29;100421.19;;;15.95;100.00
3142;BME280;1581;51.568;6.998;2024-02-16T08:25:57;100427.25;;;15.90;100.00
3142;BME280;1581;51.568;6.998;2024-02-16T08:28:24;100429.94;;;15.90;100.00
3142;BME280;1581;51.568;6.998;2024-02-16T08:30:54;100428.19;;;15.96;100.00
3142;BME280;1581;51.568;6.998;2024-02-16T08:33:25;100426.22;;;16.03;100.00
3142;BME280;1581;51.568;6.998;2024-02-16T08:35:54;100438.59;;;16.04;100.00
3142;BME280;1581;51.568;6.998;2024-02-16T08:38:23;100442.59;;;16.01;100.00
3142;BME280;1581;51.568;6.998;2024-02-16T08:40:51;100437.66;;;16.10;100.00
3142;BME280;1581;51.568;6.998;2024-02-16T08:43:18;100440.94;;;16.12;100.00
3142;BME280;1581;51.568;6.998;2024-02-16T08:45:47;100441.41;;;15.97;100.00
3142;BME280;1581;51.568;6.998;2024-02-16T08:48:15;100439.06;;;16.12;100.00
3142;BME280;1581;51.568;6.998;2024-02-16T08:50:43;100439.59;;;16.32;100.00
3142;BME280;1581;51.568;6.998;2024-02-16T08:53:10;100446.16;;;16.36;100.00
3142;BME280;1581;51.568;6.998;2024-02-16T08:55:40;100442.59;;;16.24;100.00
3142;BME280;1581;51.568;6.998;2024-02-16T08:58:07;100444.06;;;16.38;100.00
3142;BME280;1581;51.568;6.998;2024-02-16T09:00:35;100453.78;;;16.39;100.00
3142;BME280;1581;51.568;6.998;2024-02-16T09:03:06;100450.47;;;16.48;100.00
3142;BME280;1581;51.568;6.998;2024-02-16T09:05:35;100451.97;;;16.22;100.00
3142;BME280;1581;51.568;6.998;2024-02-16T09:08:04;100443.44;;;16.25;100.00
3142;BME280;1581;51.568;6.998;2024-02-16T09:10:32;100464.53;;;16.39;100.00
3142;BME280;1581;51.568;6.998;2024-02-16T09:12:59;100456.03;;;16.24;100.00
3142;BME280;1581;51.568;6.998;2024-02-16T09:15:26;100454.56;;;16.39;100.00
3142;BME280;1581;51.568;6.998;2024-02-16T09:17:54;100454.94;;;16.43;100.00
3142;BME280;1581;51.568;6.998;2024-02-16T09:20:22;100462.28;;;16.47;100.00
3142;BME280;1581;51.568;6.998;2024-02-16T09:22:49;100463.69;;;16.38;100.00
3142;BME280;1581;51.568;6.998;2024-02-16T09:25:20;100469.66;;;16.40;100.00
3142;BME280;1581;51.568;6.998;2024-02-16T09:27:49;100470.50;;;16.41;100.00
3142;BME280;1581;51.568;6.998;2024-02-16T09:30:17;100472.00;;;16.37;100.00
3142;BME280;1581;51.568;6.998;2024-02-16T09:32:47;100469.78;;;16.34;100.00
3142;BME280;1581;51.568;6.998;2024-02-16T09:35:14;100477.28;;;16.55;100.00
3142;BME280;1581;51.568;6.998;2024-02-16T09:37:42;100477.06;;;16.56;100.00
3142;BME280;1581;51.568;6.998;2024-02-16T09:40:12;100495.66;;;16.58;100.00
3142;BME280;1581;51.568;6.998;2024-02-16T09:42:41;100492.84;;;16.64;100.00
3142;BME280;1581;51.568;6.998;2024-02-16T09:45:10;100494.03;;;16.80;100.00
3142;BME280;1581;51.568;6.998;2024-02-16T09:47:42;100489.91;;;16.77;100.00
3142;BME280;1581;51.568;6.998;2024-02-16T09:50:11;100507.00;;;16.60;100.00
3142;BME280;1581;51.568;6.998;2024-02-16T09:52:38;100500.66;;;16.77;100.00
3142;BME280;1581;51.568;6.998;2024-02-16T09:55:08;100512.28;;;16.78;100.00
3142;BME280;1581;51.568;6.998;2024-02-16T09:57:37;100511.91;;;16.74;100.00
3142;BME280;1581;51.568;6.998;2024-02-16T10:00:07;100522.56;;;16.81;100.00
3142;BME280;1581;51.568;6.998;2024-02-16T10:02:40;100517.19;;;16.81;100.00
3142;BME280;1581;51.568;6.998;2024-02-16T10:05:14;100514.34;;;16.87;100.00
3142;BME280;1581;51.568;6.998;2024-02-16T10:07:42;100517.16;;;17.04;100.00
3142;BME280;1581;51.568;6.998;2024-02-16T10:10:20;100523.81;;;17.13;100.00
3142;BME280;1581;51.568;6.998;2024-02-16T10:12:49;100533.09;;;17.05;100.00
3142;BME280;1581;51.568;6.998;2024-02-16T10:15:22;100538.34;;;17.00;100.00
3142;BME280;1581;51.568;6.998;2024-02-16T10:18:04;100538.47;;;16.94;100.00
3142;BME280;1581;51.568;6.998;2024-02-16T10:20:33;100541.28;;;16.76;100.00
3142;BME280;1581;51.568;6.998;2024-02-16T10:23:05;100553.44;;;16.78;100.00
3142;BME280;1581;51.568;6.998;2024-02-16T10:25:33;100551.81;;;16.66;100.00
3142;BME280;1581;51.568;6.998;2024-02-16T10:28:05;100556.47;;;16.59;100.00
3142;BME280;1581;51.568;6.998;2024-02-16T10:30:37;100565.16;;;16.72;100.00
3142;BME280;1581;51.568;6.998;2024-02-16T10:33:05;100564.69;;;16.75;100.00
3142;BME280;1581;51.568;6.998;2024-02-16T10:35:34;100565.34;;;16.59;100.00
3142;BME280;1581;51.568;6.998;2024-02-16T10:38:02;100563.72;;;16.58;100.00
3142;BME280;1581;51.568;6.998;2024-02-16T10:40:32;100570.28;;;16.74;100.00
3142;BME280;1581;51.568;6.998;2024-02-16T10:43:03;100583.19;;;16.72;100.00
3142;BME280;1581;51.568;6.998;2024-02-16T10:45:35;100579.44;;;16.96;100.00
3142;BME280;1581;51.568;6.998;2024-02-16T10:48:05;100582.59;;;16.70;100.00
3142;BME280;1581;51.568;6.998;2024-02-16T10:50:34;100589.63;;;16.82;100.00
3142;BME280;1581;51.568;6.998;2024-02-16T10:53:09;100585.53;;;16.80;100.00
3142;BME280;1581;51.568;6.998;2024-02-16T10:55:37;100595.78;;;16.71;100.00
3142;BME280;1581;51.568;6.998;2024-02-16T10:58:07;100592.06;;;16.72;100.00
3142;BME280;1581;51.568;6.998;2024-02-16T11:00:36;100595.94;;;16.76;100.00
3142;BME280;1581;51.568;6.998;2024-02-16T11:03:17;100606.56;;;16.71;100.00
3142;BME280;1581;51.568;6.998;2024-02-16T11:05:45;100608.28;;;16.54;100.00
3142;BME280;1581;51.568;6.998;2024-02-16T11:08:14;100611.19;;;16.53;100.00
3142;BME280;1581;51.568;6.998;2024-02-16T11:10:53;100611.09;;;16.59;100.00
3142;BME280;1581;51.568;6.998;2024-02-16T11:13:23;100603.72;;;16.55;100.00
3142;BME280;1581;51.568;6.998;2024-02-16T11:15:58;100607.16;;;16.33;100.00
3142;BME280;1581;51.568;6.998;2024-02-16T11:18:27;100612.81;;;16.54;100.00
3142;BME280;1581;51.568;6.998;2024-02-16T11:20:54;100610.97;;;16.54;100.00
3142;BME280;1581;51.568;6.998;2024-02-16T11:23:27;100608.28;;;16.54;100.00
3142;BME280;1581;51.568;6.998;2024-02-16T11:26:01;100614.63;;;16.60;100.00
3142;BME280;1581;51.568;6.998;2024-02-16T11:28:31;100609.44;;;16.58;100.00
3142;BME280;1581;51.568;6.998;2024-02-16T11:31:01;100617.13;;;16.43;100.00
3142;BME280;1581;51.568;6.998;2024-02-16T11:33:29;100615.41;;;16.49;100.00
3142;BME280;1581;51.568;6.998;2024-02-16T11:35:57;100633.31;;;16.55;100.00
3142;BME280;1581;51.568;6.998;2024-02-16T11:38:24;100625.38;;;16.60;100.00
3142;BME280;1581;51.568;6.998;2024-02-16T11:40:56;100637.19;;;16.59;100.00
3142;BME280;1581;51.568;6.998;2024-02-16T11:43:25;100623.59;;;16.54;100.00
3142;BME280;1581;51.568;6.998;2024-02-16T11:45:52;100632.59;;;16.48;100.00
3142;BME280;1581;51.568;6.998;2024-02-16T11:48:23;100615.59;;;16.36;100.00
3142;BME280;1581;51.568;6.998;2024-02-16T11:51:00;100625.22;;;16.26;100.00
3142;BME280;1581;51.568;6.998;2024-02-16T11:53:28;100630.69;;;16.37;100.00
3142;BME280;1581;51.568;6.998;2024-02-16T11:55:55;100627.06;;;16.43;100.00
3142;BME280;1581;51.568;6.998;2024-02-16T11:58:24;100633.88;;;16.45;100.00
3142;BME280;1581;51.568;6.998;2024-02-16T12:00:52;100633.19;;;16.50;100.00
3142;BME280;1581;51.568;6.998;2024-02-16T12:03:21;100625.91;;;16.39;100.00
3142;BME280;1581;51.568;6.998;2024-02-16T12:05:53;100629.19;;;16.41;100.00
3142;BME280;1581;51.568;6.998;2024-02-16T12:08:20;100634.84;;;16.51;100.00
3142;BME280;1581;51.568;6.998;2024-02-16T12:10:48;100624.97;;;16.16;100.00
3142;BME280;1581;51.568;6.998;2024-02-16T12:13:16;100626.69;;;16.39;100.00
3142;BME280;1581;51.568;6.998;2024-02-16T12:15:44;100633.47;;;16.42;100.00
3142;BME280;1581;51.568;6.998;2024-02-16T12:18:21;100617.34;;;16.42;100.00
3142;BME280;1581;51.568;6.998;2024-02-16T12:20:59;100628.06;;;16.31;100.00
3142;BME280;1581;51.568;6.998;2024-02-16T12:23:26;100630.22;;;16.40;100.00
3142;BME280;1581;51.568;6.998;2024-02-16T12:25:53;100637.25;;;16.23;100.00
3142;BME280;1581;51.568;6.998;2024-02-16T12:28:25;100627.63;;;16.34;100.00
3142;BME280;1581;51.568;6.998;2024-02-16T12:30:54;100641.81;;;16.52;100.00
3142;BME280;1581;51.568;6.998;2024-02-16T12:33:22;100644.81;;;16.33;100.00
3142;BME280;1581;51.568;6.998;2024-02-16T12:35:50;100636.75;;;16.33;100.00
3142;BME280;1581;51.568;6.998;2024-02-16T12:38:17;100644.81;;;16.15;100.00
3142;BME280;1581;51.568;6.998;2024-02-16T12:40:45;100637.09;;;16.36;100.00
3142;BME280;1581;51.568;6.998;2024-02-16T12:43:12;100640.09;;;16.28;100.00
3142;BME280;1581;51.568;6.998;2024-02-16T12:45:40;100637.44;;;16.10;100.00
3142;BME280;1581;51.568;6.998;2024-02-16T12:48:10;100637.41;;;16.28;100.00
3142;BME280;1581;51.568;6.998;2024-02-16T12:50:45;100634.44;;;16.18;100.00
3142;BME280;1581;51.568;6.998;2024-02-16T12:53:15;100643.97;;;16.14;100.00
3142;BME280;1581;51.568;6.998;2024-02-16T12:55:43;100647.03;;;16.18;100.00
3142;BME280;1581;51.568;6.998;2024-02-16T12:58:11;100639.38;;;16.21;100.00
3142;BME280;1581;51.568;6.998;2024-02-16T13:00:38;100648.91;;;16.17;100.00
3142;BME280;1581;51.568;6.998;2024-02-16T13:03:07;100655.19;;;16.29;100.00
3142;BME280;1581;51.568;6.998;2024-02-16T13:05:34;100656.16;;;16.35;100.00
3142;BME280;1581;51.568;6.998;2024-02-16T13:08:07;100656.84;;;16.30;100.00